createdAt,value
2022-09-14T00:01:25.725Z,8.90
2022-09-14T00:02:59.195Z,8.93
2022-09-14T00:04:31.953Z,9.27
2022-09-14T00:06:07.832Z,9.10
2022-09-14T00:07:40.517Z,10.83
2022-09-14T00:09:17.596Z,9.27
2022-09-14T00:10:50.263Z,9.63
2022-09-14T00:12:22.936Z,8.27
2022-09-14T00:13:56.031Z,10.53
2022-09-14T00:15:28.694Z,10.90
2022-09-14T00:17:01.402Z,11.10
2022-09-14T00:18:34.377Z,10.10
2022-09-14T00:20:08.182Z,10.10
2022-09-14T00:21:42.613Z,10.03
2022-09-14T00:23:14.354Z,10.17
2022-09-14T00:24:47.032Z,10.07
2022-09-14T00:26:21.821Z,10.37
2022-09-14T00:27:54.837Z,11.03
2022-09-14T00:29:26.717Z,10.57
2022-09-14T00:30:59.385Z,8.87
2022-09-14T00:32:32.101Z,8.30
2022-09-14T00:34:06.247Z,8.57
2022-09-14T00:35:39.044Z,8.13
2022-09-14T00:37:13.866Z,9.97
2022-09-14T00:38:47.435Z,9.70
2022-09-14T00:40:20.587Z,10.60
2022-09-14T00:41:52.846Z,10.87
2022-09-14T00:43:25.827Z,12.00
2022-09-14T00:45:17.808Z,11.30
2022-09-14T00:46:51.497Z,11.80
2022-09-14T00:48:26.481Z,10.70
2022-09-14T00:50:00.671Z,10.67
2022-09-14T00:51:34.501Z,9.40
2022-09-14T00:53:08.561Z,8.50
2022-09-14T00:54:43.545Z,9.40
2022-09-14T00:56:16.591Z,10.93
2022-09-14T00:57:53.297Z,10.70
2022-09-14T00:59:28.969Z,8.63
2022-09-14T01:01:02.399Z,10.07
2022-09-14T01:02:34.810Z,11.17
2022-09-14T01:04:07.585Z,10.83
2022-09-14T01:05:55.421Z,9.37
2022-09-14T01:07:42.262Z,8.80
2022-09-14T01:09:28.156Z,10.37
2022-09-14T01:11:24.497Z,10.20
2022-09-14T01:13:09.618Z,11.10
2022-09-14T01:14:50.137Z,9.00
2022-09-14T01:16:32.711Z,10.13
2022-09-14T01:18:10.429Z,8.00
2022-09-14T01:20:07.328Z,9.10
2022-09-14T01:21:43.345Z,9.10
2022-09-14T01:23:22.375Z,9.60
2022-09-14T01:25:08.585Z,9.30
2022-09-14T01:27:17.386Z,11.30
2022-09-14T01:28:55.729Z,11.40
2022-09-14T01:30:32.816Z,12.67
2022-09-14T01:32:12.989Z,13.17
2022-09-14T01:33:52.510Z,14.83
2022-09-14T01:35:30.397Z,14.77
2022-09-14T01:37:12.885Z,15.03
2022-09-14T01:38:49.540Z,15.33
2022-09-14T01:40:28.165Z,14.73
2022-09-14T01:42:01.430Z,15.57
2022-09-14T01:43:40.581Z,12.17
2022-09-14T01:45:18.946Z,12.63
2022-09-14T01:46:57.390Z,13.23
2022-09-14T01:48:35.513Z,11.67
2022-09-14T01:50:11.432Z,13.37
2022-09-14T01:51:47.925Z,14.57
2022-09-14T01:53:24.340Z,16.03
2022-09-14T01:55:01.948Z,16.83
2022-09-14T01:56:39.824Z,16.40
2022-09-14T01:58:17.122Z,15.13
2022-09-14T01:59:55.803Z,14.93
2022-09-14T02:01:30.971Z,15.57
2022-09-14T02:03:08.225Z,16.40
2022-09-14T02:04:46.462Z,16.40
2022-09-14T02:06:25.807Z,16.73
2022-09-14T02:07:57.789Z,18.47
2022-09-14T02:09:30.529Z,20.00
2022-09-14T02:11:03.536Z,21.40
2022-09-14T02:12:36.562Z,22.83
2022-09-14T02:14:09.463Z,25.47
2022-09-14T02:15:43.486Z,26.47
2022-09-14T02:17:16.297Z,25.57
2022-09-14T02:18:49.067Z,27.63
2022-09-14T02:20:25.561Z,28.10
2022-09-14T02:21:57.289Z,29.03
2022-09-14T02:23:30.312Z,30.67
2022-09-14T02:25:03.640Z,28.87
2022-09-14T02:26:37.182Z,28.83
2022-09-14T02:28:10.009Z,29.17
2022-09-14T02:29:42.913Z,28.70
2022-09-14T02:31:25.458Z,29.43
2022-09-14T02:33:09.471Z,29.93
2022-09-14T02:34:51.421Z,29.10
2022-09-14T02:36:30.972Z,29.47
2022-09-14T02:38:11.390Z,30.97
2022-09-14T02:39:48.672Z,27.97
2022-09-14T02:41:32.906Z,27.00
2022-09-14T02:43:19.695Z,25.23
2022-09-14T02:45:01.273Z,25.50
2022-09-14T02:46:44.630Z,23.80
2022-09-14T02:48:23.722Z,25.43
2022-09-14T02:50:03.632Z,25.07
2022-09-14T02:51:41.455Z,24.03
2022-09-14T02:53:18.822Z,24.67
2022-09-14T02:54:57.581Z,25.93
2022-09-14T02:56:30.961Z,22.13
2022-09-14T02:58:04.796Z,24.23
2022-09-14T02:59:37.765Z,23.00
2022-09-14T03:01:12.531Z,22.53
2022-09-14T03:02:45.727Z,22.20
2022-09-14T03:04:18.414Z,17.53
2022-09-14T03:05:51.160Z,21.30
2022-09-14T03:07:23.835Z,20.40
2022-09-14T03:08:56.522Z,20.77
2022-09-14T03:10:28.591Z,19.37
2022-09-14T03:12:01.274Z,17.40
2022-09-14T03:13:34.464Z,17.57
2022-09-14T03:15:08.190Z,15.60
2022-09-14T03:16:41.092Z,15.13
2022-09-14T03:18:15.350Z,14.03
2022-09-14T03:19:48.009Z,14.17
2022-09-14T03:21:20.695Z,12.83
2022-09-14T03:22:52.677Z,12.60
2022-09-14T03:24:25.408Z,11.20
2022-09-14T03:25:58.073Z,15.27
2022-09-14T03:27:30.753Z,15.00
2022-09-14T03:29:05.435Z,15.60
2022-09-14T03:30:38.480Z,16.07
2022-09-14T03:32:10.938Z,16.00
2022-09-14T03:33:44.980Z,16.93
2022-09-14T03:35:17.960Z,14.27
2022-09-14T03:36:50.639Z,17.70
2022-09-14T03:38:24.173Z,17.90
2022-09-14T03:39:56.882Z,18.53
2022-09-14T03:41:30.038Z,18.53
2022-09-14T03:43:02.791Z,16.23
2022-09-14T03:44:35.552Z,18.60
2022-09-14T03:46:08.395Z,17.23
2022-09-14T03:47:41.500Z,16.53
2022-09-14T03:49:15.594Z,16.20
2022-09-14T03:50:48.269Z,13.90
2022-09-14T03:52:20.009Z,14.40
2022-09-14T03:53:52.853Z,13.30
2022-09-14T03:55:25.604Z,12.97
2022-09-14T03:56:58.279Z,12.00
2022-09-14T03:58:33.058Z,11.13
2022-09-14T04:00:07.873Z,8.90
2022-09-14T04:01:41.081Z,9.23
2022-09-14T04:03:14.114Z,10.10
2022-09-14T04:04:48.438Z,9.77
2022-09-14T04:06:21.241Z,10.53
2022-09-14T04:07:53.916Z,10.37
2022-09-14T04:09:26.604Z,9.20
2022-09-14T04:10:59.289Z,10.07
2022-09-14T04:12:35.795Z,10.20
2022-09-14T04:14:08.499Z,9.63
2022-09-14T04:15:40.287Z,9.10
2022-09-14T04:17:12.990Z,8.83
2022-09-14T04:18:45.938Z,8.63
2022-09-14T04:20:20.184Z,8.33
2022-09-14T04:21:52.892Z,9.10
2022-09-14T04:23:26.018Z,9.27
2022-09-14T04:24:58.693Z,9.23
2022-09-14T04:26:31.356Z,9.97
2022-09-14T04:28:19.743Z,9.50
2022-09-14T04:29:53.395Z,9.67
2022-09-14T04:31:25.587Z,8.70
2022-09-14T04:32:58.343Z,10.00
2022-09-14T04:34:31.059Z,10.13
2022-09-14T04:36:07.808Z,9.13
2022-09-14T04:37:40.468Z,8.53
2022-09-14T04:39:15.034Z,9.47
2022-09-14T04:40:47.718Z,9.53
2022-09-14T04:42:20.387Z,9.60
2022-09-14T04:43:54.900Z,9.83
2022-09-14T04:45:27.575Z,10.23
2022-09-14T04:47:00.296Z,10.50
2022-09-14T04:48:35.025Z,9.20
2022-09-14T04:50:08.404Z,9.40
2022-09-14T04:51:42.403Z,10.03
2022-09-14T04:53:15.114Z,8.57
2022-09-14T04:54:47.789Z,9.43
2022-09-14T04:56:22.207Z,8.97
2022-09-14T04:57:54.896Z,8.53
2022-09-14T04:59:27.561Z,7.60
2022-09-14T05:01:01.852Z,9.73
2022-09-14T05:02:34.545Z,9.70
2022-09-14T05:04:08.553Z,8.30
2022-09-14T05:05:44.332Z,8.40
2022-09-14T05:07:18.945Z,7.07
2022-09-14T05:08:51.414Z,7.07
2022-09-14T05:10:24.117Z,6.33
2022-09-14T05:11:56.788Z,9.77
2022-09-14T05:13:29.528Z,8.03
2022-09-14T05:15:02.205Z,7.40
2022-09-14T05:16:37.394Z,7.13
2022-09-14T05:18:10.068Z,8.87
2022-09-14T05:19:42.755Z,6.57
2022-09-14T05:21:22.161Z,9.70
2022-09-14T05:22:56.179Z,7.50
2022-09-14T05:24:29.209Z,8.47
2022-09-14T05:26:02.057Z,10.00
2022-09-14T05:27:34.745Z,8.93
2022-09-14T05:29:07.594Z,9.20
2022-09-14T05:30:41.309Z,8.63
2022-09-14T05:32:13.999Z,10.90
2022-09-14T05:33:47.009Z,10.90
2022-09-14T05:35:19.933Z,8.13
2022-09-14T05:36:52.769Z,11.23
2022-09-14T05:38:28.593Z,11.73
2022-09-14T05:40:01.327Z,12.50
2022-09-14T05:41:34.132Z,12.93
2022-09-14T05:43:06.814Z,13.70
2022-09-14T05:44:39.484Z,14.77
2022-09-14T05:46:14.378Z,15.17
2022-09-14T05:47:47.237Z,11.33
2022-09-14T05:49:19.924Z,12.27
2022-09-14T05:50:58.588Z,11.63
2022-09-14T05:52:31.274Z,12.33
2022-09-14T05:54:10.055Z,11.93
2022-09-14T05:55:42.750Z,10.47
2022-09-14T05:57:15.457Z,8.50
2022-09-14T05:58:48.664Z,8.47
2022-09-14T06:00:22.455Z,9.83
2022-09-14T06:01:55.338Z,10.83
2022-09-14T06:03:27.390Z,9.60
2022-09-14T06:05:00.153Z,10.83
2022-09-14T06:06:33.788Z,10.60
2022-09-14T06:08:06.463Z,12.40
2022-09-14T06:09:40.596Z,11.50
2022-09-14T06:11:15.681Z,11.90
2022-09-14T06:12:51.263Z,10.80
2022-09-14T06:14:27.512Z,12.40
2022-09-14T06:16:03.515Z,12.20
2022-09-14T06:17:36.193Z,12.77
2022-09-14T06:19:09.897Z,13.10
2022-09-14T06:20:51.260Z,12.90
2022-09-14T06:22:23.961Z,11.47
2022-09-14T06:23:56.753Z,9.20
2022-09-14T06:25:31.081Z,8.47
2022-09-14T06:27:03.752Z,8.23
2022-09-14T06:28:37.185Z,9.57
2022-09-14T06:30:11.063Z,8.57
2022-09-14T06:31:43.720Z,8.60
2022-09-14T06:33:15.504Z,8.13
2022-09-14T06:34:48.209Z,8.10
2022-09-14T06:36:22.758Z,8.63
2022-09-14T06:37:55.837Z,6.93
2022-09-14T06:39:28.525Z,5.63
2022-09-14T06:41:05.312Z,7.47
2022-09-14T06:42:38.031Z,7.17
2022-09-14T06:44:10.733Z,7.33
2022-09-14T06:45:43.091Z,7.10
2022-09-14T06:47:15.796Z,8.23
2022-09-14T06:48:50.077Z,7.50
2022-09-14T06:50:22.854Z,7.43
2022-09-14T06:51:57.386Z,6.93
2022-09-14T06:53:30.660Z,7.57
2022-09-14T06:55:03.588Z,8.33
2022-09-14T06:56:39.123Z,7.37
2022-09-14T06:58:11.054Z,8.37
2022-09-14T06:59:44.304Z,7.70
2022-09-14T07:01:19.683Z,7.63
2022-09-14T07:02:55.509Z,8.27
2022-09-14T07:04:28.469Z,7.77
2022-09-14T07:06:06.312Z,7.83
2022-09-14T07:07:39.269Z,8.37
2022-09-14T07:09:12.508Z,8.10
2022-09-14T07:10:45.173Z,8.37
2022-09-14T07:12:19.179Z,8.50
2022-09-14T07:13:52.691Z,9.30
2022-09-14T07:15:25.411Z,8.10
2022-09-14T07:16:58.097Z,8.87
2022-09-14T07:18:32.793Z,7.93
2022-09-14T07:20:06.751Z,7.60
2022-09-14T07:21:39.435Z,9.07
2022-09-14T07:23:13.401Z,8.40
2022-09-14T07:24:46.072Z,9.90
2022-09-14T07:26:20.670Z,10.57
2022-09-14T07:27:54.731Z,10.53
2022-09-14T07:29:27.432Z,8.67
2022-09-14T07:31:00.305Z,8.87
2022-09-14T07:32:33.060Z,8.80
2022-09-14T07:34:06.720Z,8.77
2022-09-14T07:35:39.384Z,7.70
2022-09-14T07:37:12.133Z,7.60
2022-09-14T07:38:53.229Z,7.30
2022-09-14T07:40:26.981Z,7.03
2022-09-14T07:41:59.765Z,6.50
2022-09-14T07:43:33.949Z,7.47
2022-09-14T07:45:07.643Z,7.07
2022-09-14T07:46:42.960Z,6.37
2022-09-14T07:48:15.670Z,6.67
2022-09-14T07:49:48.371Z,6.77
2022-09-14T07:51:21.895Z,6.03
2022-09-14T07:52:54.585Z,5.80
2022-09-14T07:54:27.455Z,5.37
2022-09-14T07:56:01.535Z,5.27
2022-09-14T07:57:55.007Z,5.90
2022-09-14T07:59:36.798Z,6.63
2022-09-14T08:01:11.769Z,8.07
2022-09-14T08:02:44.600Z,8.20
2022-09-14T08:04:17.496Z,8.37
2022-09-14T08:05:50.237Z,7.77
2022-09-14T08:07:22.912Z,7.10
2022-09-14T08:08:56.875Z,7.50
2022-09-14T08:10:29.544Z,7.30
2022-09-14T08:12:03.120Z,7.80
2022-09-14T08:13:36.491Z,6.03
2022-09-14T08:15:11.372Z,6.10
2022-09-14T08:16:44.158Z,6.90
2022-09-14T08:18:16.911Z,6.33
2022-09-14T08:19:49.734Z,6.23
2022-09-14T08:21:23.108Z,6.00
2022-09-14T08:22:55.794Z,5.80
2022-09-14T08:24:28.558Z,5.27
2022-09-14T08:26:05.109Z,5.80
2022-09-14T08:27:37.845Z,6.10
2022-09-14T08:29:10.589Z,5.90
2022-09-14T08:30:44.605Z,5.47
2022-09-14T08:32:17.294Z,6.30
2022-09-14T08:33:52.348Z,6.13
2022-09-14T08:35:46.848Z,6.23
2022-09-14T08:37:17.744Z,6.03
2022-09-14T08:38:51.164Z,5.70
2022-09-14T08:40:24.143Z,5.33
2022-09-14T08:41:58.752Z,5.90
2022-09-14T08:43:31.583Z,5.13
2022-09-14T08:45:09.728Z,4.90
2022-09-14T08:46:48.024Z,5.17
2022-09-14T08:48:26.212Z,5.23
2022-09-14T08:50:03.800Z,5.80
2022-09-14T08:51:36.561Z,5.63
2022-09-14T08:53:09.763Z,5.43
2022-09-14T08:54:42.441Z,4.93
2022-09-14T08:56:18.371Z,5.40
2022-09-14T08:57:56.821Z,4.10
2022-09-14T08:59:46.008Z,4.20
2022-09-14T09:01:23.816Z,3.77
2022-09-14T09:03:33.495Z,3.50
2022-09-14T09:05:25.580Z,3.80
2022-09-14T09:07:04.776Z,3.73
2022-09-14T09:08:47.950Z,3.77
2022-09-14T09:10:21.818Z,4.00
2022-09-14T09:11:56.300Z,3.77
2022-09-14T09:13:33.734Z,4.10
2022-09-14T09:15:18.808Z,4.10
2022-09-14T09:16:55.814Z,4.00
2022-09-14T09:18:38.021Z,4.00
2022-09-14T09:20:13.865Z,3.67
2022-09-14T09:21:48.806Z,3.60
2022-09-14T09:23:22.939Z,3.70
2022-09-14T09:24:56.382Z,3.30
2022-09-14T09:26:30.946Z,3.90
2022-09-14T09:28:11.826Z,3.70
2022-09-14T09:29:44.825Z,3.73
2022-09-14T09:31:20.772Z,4.10
2022-09-14T09:32:53.559Z,4.20
2022-09-14T09:34:31.100Z,3.70
2022-09-14T09:36:04.027Z,3.90
2022-09-14T09:37:40.037Z,4.00
2022-09-14T09:39:13.089Z,3.77
2022-09-14T09:40:49.965Z,4.70
2022-09-14T09:42:24.727Z,3.70
2022-09-14T09:44:02.525Z,4.10
2022-09-14T09:45:54.267Z,3.97
2022-09-14T09:47:30.610Z,3.97
2022-09-14T09:49:05.008Z,3.80
2022-09-14T09:50:48.680Z,3.70
2022-09-14T09:52:21.741Z,3.70
2022-09-14T09:53:56.556Z,4.23
2022-09-14T09:55:35.019Z,3.80
2022-09-14T09:57:19.377Z,3.80
2022-09-14T09:58:52.544Z,3.93
2022-09-14T10:00:27.460Z,3.90
2022-09-14T10:02:23.218Z,4.00
2022-09-14T10:04:05.730Z,4.20
2022-09-14T10:05:39.751Z,4.03
2022-09-14T10:07:22.315Z,4.00
2022-09-14T10:08:57.340Z,4.10
2022-09-14T10:10:42.897Z,4.10
2022-09-14T10:12:17.590Z,4.23
2022-09-14T10:13:50.634Z,3.80
2022-09-14T10:15:26.641Z,4.37
2022-09-14T10:17:07.528Z,4.33
2022-09-14T10:18:48.839Z,4.97
2022-09-14T10:20:23.961Z,4.60
2022-09-14T10:22:17.574Z,4.40
2022-09-14T10:24:05.360Z,5.03
2022-09-14T10:25:38.055Z,5.00
2022-09-14T10:27:41.861Z,4.77
2022-09-14T10:29:38.882Z,4.80
2022-09-14T10:31:19.210Z,5.20
2022-09-14T10:32:57.509Z,5.30
2022-09-14T10:34:30.447Z,5.27
2022-09-14T10:36:11.500Z,5.37
2022-09-14T10:38:08.020Z,5.00
2022-09-14T10:39:46.637Z,5.60
2022-09-14T10:41:26.134Z,5.90
2022-09-14T10:43:10.038Z,5.83
2022-09-14T10:44:54.400Z,6.10
2022-09-14T10:46:31.648Z,6.27
2022-09-14T10:48:18.710Z,6.40
2022-09-14T10:50:04.303Z,6.30
2022-09-14T10:51:48.964Z,6.30
2022-09-14T10:53:36.633Z,6.60
2022-09-14T10:55:31.845Z,6.97
2022-09-14T10:57:14.478Z,6.10
2022-09-14T10:59:07.277Z,6.80
2022-09-14T11:00:49.742Z,6.60
2022-09-14T11:02:46.191Z,6.27
2022-09-14T11:04:31.744Z,6.80
2022-09-14T11:06:15.288Z,6.53
2022-09-14T11:08:00.516Z,6.63
2022-09-14T11:09:39.532Z,6.20
2022-09-14T11:11:29.103Z,6.73
2022-09-14T11:13:38.420Z,6.73
2022-09-14T11:15:21.399Z,6.97
2022-09-14T11:17:04.409Z,6.90
2022-09-14T11:18:43.185Z,6.87
2022-09-14T11:20:28.284Z,7.23
2022-09-14T11:22:07.003Z,6.97
2022-09-14T11:23:48.925Z,7.13
2022-09-14T11:25:28.174Z,7.97
2022-09-14T11:27:05.216Z,8.07
2022-09-14T11:28:43.103Z,7.87
2022-09-14T11:30:18.688Z,8.27
2022-09-14T11:32:16.945Z,8.17
2022-09-14T11:33:50.966Z,7.80
2022-09-14T11:35:26.670Z,7.27
2022-09-14T11:37:04.685Z,7.43
2022-09-14T11:38:44.238Z,8.10
2022-09-14T11:40:22.768Z,7.57
2022-09-14T11:42:01.914Z,9.17
2022-09-14T11:43:43.533Z,9.20
2022-09-14T11:45:21.820Z,8.93
2022-09-14T11:47:01.006Z,8.23
2022-09-14T11:48:43.146Z,8.20
2022-09-14T11:50:20.886Z,7.80
2022-09-14T11:51:56.487Z,8.10
2022-09-14T11:53:29.715Z,8.37
2022-09-14T11:55:04.192Z,8.93
2022-09-14T11:56:36.978Z,7.00
2022-09-14T11:58:18.849Z,7.60
2022-09-14T11:59:53.948Z,7.93
2022-09-14T12:01:35.526Z,8.57
2022-09-14T12:03:17.119Z,7.93
2022-09-14T12:05:23.071Z,7.37
2022-09-14T12:06:57.340Z,7.70
2022-09-14T12:08:40.500Z,7.70
2022-09-14T12:10:20.696Z,8.13
2022-09-14T12:11:55.402Z,7.93
2022-09-14T12:13:29.622Z,8.20
2022-09-14T12:15:03.670Z,8.07
2022-09-14T12:17:17.310Z,8.70
2022-09-14T12:18:57.723Z,8.47
2022-09-14T12:20:41.349Z,8.50
2022-09-14T12:22:27.913Z,8.97
2022-09-14T12:24:15.486Z,8.50
2022-09-14T12:26:09.852Z,7.20
2022-09-14T12:27:44.436Z,8.77
2022-09-14T12:29:33.179Z,8.37
2022-09-14T12:31:32.806Z,8.33
2022-09-14T12:33:28.235Z,8.93
2022-09-14T12:35:38.758Z,8.87
2022-09-14T12:37:31.032Z,8.10
2022-09-14T12:39:20.859Z,8.90
2022-09-14T12:40:53.550Z,8.07
2022-09-14T12:42:29.742Z,8.03
2022-09-14T12:44:02.561Z,7.87
2022-09-14T12:46:01.122Z,9.30
2022-09-14T12:47:52.859Z,8.90
2022-09-14T12:49:43.605Z,9.27
2022-09-14T12:51:23.532Z,8.73
2022-09-14T12:53:08.381Z,8.67
2022-09-14T12:54:51.598Z,8.27
2022-09-14T12:56:30.265Z,8.77
2022-09-14T12:58:13.204Z,9.80
2022-09-14T12:59:54.263Z,8.53
2022-09-14T13:01:38.665Z,9.27
2022-09-14T13:03:24.582Z,9.30
2022-09-14T13:04:59.253Z,8.13
2022-09-14T13:06:40.573Z,9.03
2022-09-14T13:08:18.233Z,8.53
2022-09-14T13:09:53.834Z,8.83
2022-09-14T13:11:32.087Z,8.73
2022-09-14T13:13:14.026Z,9.90
2022-09-14T13:14:49.652Z,9.57
2022-09-14T13:16:39.458Z,10.17
2022-09-14T13:18:30.370Z,9.93
2022-09-14T13:20:06.181Z,9.57
2022-09-14T13:21:47.543Z,9.53
2022-09-14T13:23:21.142Z,9.90
2022-09-14T13:24:54.317Z,9.53
2022-09-14T13:26:28.856Z,10.23
2022-09-14T13:28:05.507Z,9.37
2022-09-14T13:29:38.457Z,10.33
2022-09-14T13:31:14.953Z,10.00
2022-09-14T13:32:52.216Z,9.80
2022-09-14T13:34:28.341Z,10.07
2022-09-14T13:36:03.499Z,9.73
2022-09-14T13:37:39.349Z,9.73
2022-09-14T13:39:24.041Z,10.67
2022-09-14T13:41:06.490Z,10.93
2022-09-14T13:42:40.384Z,10.60
2022-09-14T13:44:13.684Z,11.17
2022-09-14T13:45:47.245Z,11.20
2022-09-14T13:47:22.920Z,10.60
2022-09-14T13:48:57.431Z,11.23
2022-09-14T13:50:30.253Z,10.77
2022-09-14T13:52:57.039Z,10.87
2022-09-14T13:54:29.809Z,10.80
2022-09-14T13:56:16.460Z,10.40
2022-09-14T13:58:12.833Z,10.10
2022-09-14T14:00:05.694Z,9.90
2022-09-14T14:01:41.387Z,10.13
2022-09-14T14:03:26.169Z,9.90
2022-09-14T14:05:00.440Z,9.90
2022-09-14T14:06:34.920Z,10.10
2022-09-14T14:08:26.429Z,9.23
2022-09-14T14:10:00.306Z,10.10
2022-09-14T14:11:37.193Z,9.87
2022-09-14T14:13:09.939Z,9.87
2022-09-14T14:14:42.672Z,10.20
2022-09-14T14:16:18.043Z,9.63
2022-09-14T14:17:51.059Z,9.17
2022-09-14T14:19:28.493Z,9.00
2022-09-14T14:21:15.969Z,8.70
2022-09-14T14:22:57.579Z,8.90
2022-09-14T14:24:32.450Z,8.37
2022-09-14T14:26:10.757Z,7.60
2022-09-14T14:27:46.022Z,7.43
2022-09-14T14:29:19.452Z,7.43
2022-09-14T14:30:53.225Z,6.50
2022-09-14T14:32:26.111Z,6.07
2022-09-14T14:33:59.103Z,5.90
2022-09-14T14:35:32.508Z,5.50
2022-09-14T14:37:06.584Z,6.10
2022-09-14T14:38:40.702Z,6.20
2022-09-14T14:40:13.878Z,5.00
2022-09-14T14:41:47.361Z,4.67
2022-09-14T14:43:24.277Z,4.80
2022-09-14T14:44:57.092Z,4.17
2022-09-14T14:46:30.426Z,3.87
2022-09-14T14:48:04.243Z,3.73
2022-09-14T14:49:36.934Z,3.90
2022-09-14T14:51:13.951Z,3.90
2022-09-14T14:52:47.965Z,4.33
2022-09-14T14:54:21.233Z,4.37
2022-09-14T14:55:54.234Z,4.13
2022-09-14T14:57:26.915Z,4.17
2022-09-14T14:59:02.246Z,3.77
2022-09-14T15:00:38.328Z,3.70
2022-09-14T15:02:11.033Z,4.43
2022-09-14T15:03:44.356Z,4.70
2022-09-14T15:05:17.193Z,4.40
2022-09-14T15:06:50.591Z,4.63
2022-09-14T15:08:24.600Z,4.70
2022-09-14T15:09:58.821Z,4.57
2022-09-14T15:11:31.776Z,4.50
2022-09-14T15:13:04.492Z,3.90
2022-09-14T15:14:37.185Z,2.80
2022-09-14T15:16:09.924Z,3.00
2022-09-14T15:17:43.034Z,2.60
2022-09-14T15:19:16.512Z,3.00
2022-09-14T15:20:49.190Z,2.30
2022-09-14T15:22:21.910Z,2.50
2022-09-14T15:23:55.956Z,2.47
2022-09-14T15:25:28.816Z,2.50
2022-09-14T15:27:01.724Z,2.33
2022-09-14T15:28:38.269Z,2.40
2022-09-14T15:30:12.940Z,2.10
2022-09-14T15:31:45.937Z,2.57
2022-09-14T15:33:18.730Z,2.73
2022-09-14T15:34:53.499Z,2.33
2022-09-14T15:36:40.749Z,2.40
2022-09-14T15:38:13.502Z,2.43
2022-09-14T15:39:50.057Z,2.20
2022-09-14T15:41:22.874Z,2.00
2022-09-14T15:42:55.586Z,2.40
2022-09-14T15:44:28.281Z,2.10
2022-09-14T15:46:03.370Z,2.47
2022-09-14T15:47:36.785Z,2.43
2022-09-14T15:49:13.711Z,1.73
2022-09-14T15:50:48.316Z,1.90
2022-09-14T15:52:21.121Z,1.70
2022-09-14T15:53:53.810Z,1.63
2022-09-14T15:55:27.843Z,2.03
2022-09-14T15:57:01.242Z,1.87
2022-09-14T15:58:33.942Z,1.83
2022-09-14T16:00:09.409Z,1.97
2022-09-14T16:01:42.127Z,2.00
2022-09-14T16:03:15.079Z,2.10
2022-09-14T16:04:47.746Z,1.90
2022-09-14T16:06:20.451Z,1.93
2022-09-14T16:07:54.380Z,1.90
2022-09-14T16:09:27.226Z,1.80
2022-09-14T16:11:02.662Z,1.70
2022-09-14T16:12:35.366Z,2.03
2022-09-14T16:14:09.836Z,1.83
2022-09-14T16:15:42.505Z,2.03
2022-09-14T16:17:15.630Z,2.10
2022-09-14T16:18:49.764Z,1.90
2022-09-14T16:20:22.630Z,2.20
2022-09-14T16:21:55.408Z,1.80
2022-09-14T16:23:28.143Z,2.30
2022-09-14T16:25:00.872Z,1.97
2022-09-14T16:26:36.990Z,2.00
2022-09-14T16:28:09.705Z,2.30
2022-09-14T16:29:42.380Z,2.47
2022-09-14T16:31:17.536Z,2.10
2022-09-14T16:32:50.425Z,2.60
2022-09-14T16:34:25.688Z,2.10
2022-09-14T16:36:04.116Z,2.30
2022-09-14T16:37:36.808Z,2.10
2022-09-14T16:39:12.525Z,2.10
2022-09-14T16:40:45.506Z,2.53
2022-09-14T16:42:20.113Z,2.10
2022-09-14T16:43:55.856Z,2.47
2022-09-14T16:45:28.727Z,2.40
2022-09-14T16:47:01.610Z,2.33
2022-09-14T16:48:35.778Z,2.07
2022-09-14T16:50:08.915Z,2.47
2022-09-14T16:51:41.711Z,2.40
2022-09-14T16:53:14.429Z,1.80
2022-09-14T16:54:47.210Z,1.10
2022-09-14T16:56:22.059Z,0.90
2022-09-14T16:57:56.208Z,0.93
2022-09-14T16:59:29.354Z,0.80
2022-09-14T17:01:06.822Z,0.77
2022-09-14T17:02:39.678Z,0.77
2022-09-14T17:04:15.241Z,0.80
2022-09-14T17:05:47.120Z,0.90
2022-09-14T17:07:22.235Z,0.90
2022-09-14T17:08:55.867Z,0.80
2022-09-14T17:10:28.548Z,0.77
2022-09-14T17:12:01.422Z,0.90
2022-09-14T17:13:35.129Z,0.80
2022-09-14T17:15:09.522Z,0.97
2022-09-14T17:16:42.447Z,0.77
2022-09-14T17:18:15.146Z,0.80
2022-09-14T17:19:47.837Z,1.00
2022-09-14T17:21:22.465Z,1.03
2022-09-14T17:22:55.145Z,1.10
2022-09-14T17:24:27.978Z,1.30
2022-09-14T17:26:01.125Z,1.47
2022-09-14T17:27:33.841Z,1.50
2022-09-14T17:29:08.386Z,1.63
2022-09-14T17:30:41.970Z,1.40
2022-09-14T17:32:15.122Z,1.60
2022-09-14T17:33:48.244Z,1.60
2022-09-14T17:35:20.964Z,1.60
2022-09-14T17:36:54.007Z,1.70
2022-09-14T17:38:27.765Z,1.70
2022-09-14T17:40:01.490Z,1.57
2022-09-14T17:41:37.162Z,1.70
2022-09-14T17:43:09.978Z,1.90
2022-09-14T17:44:44.643Z,1.87
2022-09-14T17:46:17.293Z,1.67
2022-09-14T17:47:49.985Z,1.93
2022-09-14T17:49:23.473Z,2.23
2022-09-14T17:50:55.281Z,1.80
2022-09-14T17:52:28.210Z,2.30
2022-09-14T17:54:02.184Z,2.07
2022-09-14T17:55:34.880Z,2.13
2022-09-14T17:57:07.583Z,2.20
2022-09-14T17:58:40.629Z,2.40
2022-09-14T18:00:15.938Z,2.43
2022-09-14T18:01:49.145Z,2.30
2022-09-14T18:03:22.053Z,2.20
2022-09-14T18:04:55.040Z,2.30
2022-09-14T18:06:30.504Z,2.47
2022-09-14T18:08:03.777Z,2.23
2022-09-14T18:09:36.576Z,2.07
2022-09-14T18:11:18.294Z,2.40
2022-09-14T18:12:53.037Z,2.10
2022-09-14T18:14:26.878Z,2.07
2022-09-14T18:16:02.000Z,2.10
2022-09-14T18:17:34.809Z,2.00
2022-09-14T18:19:07.648Z,2.00
2022-09-14T18:20:40.372Z,1.80
2022-09-14T18:22:15.581Z,1.90
2022-09-14T18:23:52.395Z,2.10
2022-09-14T18:25:25.427Z,1.93
2022-09-14T18:26:58.480Z,2.20
2022-09-14T18:28:30.897Z,2.17
2022-09-14T18:30:03.674Z,2.30
2022-09-14T18:31:38.289Z,2.10
2022-09-14T18:33:11.038Z,1.97
2022-09-14T18:34:43.708Z,1.83
2022-09-14T18:36:16.644Z,1.80
2022-09-14T18:37:49.317Z,2.03
2022-09-14T18:39:22.025Z,2.00
2022-09-14T18:40:54.754Z,1.83
2022-09-14T18:42:27.462Z,1.90
2022-09-14T18:44:00.970Z,1.70
2022-09-14T18:45:35.382Z,2.00
2022-09-14T18:47:09.449Z,1.80
2022-09-14T18:48:43.779Z,2.30
2022-09-14T18:50:16.662Z,2.20
2022-09-14T18:51:49.348Z,2.23
2022-09-14T18:53:22.400Z,2.20
2022-09-14T18:54:55.076Z,1.83
2022-09-14T18:56:29.117Z,1.87
2022-09-14T18:58:02.762Z,2.10
2022-09-14T18:59:35.458Z,2.00
2022-09-14T19:01:09.537Z,1.90
2022-09-14T19:02:43.689Z,1.90
2022-09-14T19:04:16.432Z,1.83
2022-09-14T19:05:48.140Z,1.90
2022-09-14T19:07:20.844Z,1.80
2022-09-14T19:08:53.561Z,1.90
2022-09-14T19:10:26.817Z,1.90
2022-09-14T19:11:59.522Z,2.00
2022-09-14T19:13:32.258Z,2.10
2022-09-14T19:15:05.782Z,1.93
2022-09-14T19:16:39.645Z,2.00
2022-09-14T19:18:14.130Z,1.80
2022-09-14T19:19:46.821Z,2.27
2022-09-14T19:21:23.879Z,1.77
2022-09-14T19:22:57.114Z,1.93
2022-09-14T19:24:33.037Z,1.90
2022-09-14T19:26:06.601Z,2.17
2022-09-14T19:27:39.324Z,2.00
2022-09-14T19:29:12.669Z,2.07
2022-09-14T19:30:45.366Z,1.97
2022-09-14T19:32:18.518Z,2.10
2022-09-14T19:33:53.100Z,2.07
2022-09-14T19:35:25.980Z,2.07
2022-09-14T19:36:58.745Z,1.93
2022-09-14T19:38:31.445Z,2.30
2022-09-14T19:40:04.987Z,2.07
2022-09-14T19:41:38.543Z,1.90
2022-09-14T19:43:11.507Z,2.20
2022-09-14T19:44:44.208Z,2.17
2022-09-14T19:46:20.799Z,2.10
2022-09-14T19:47:53.655Z,2.57
2022-09-14T19:49:28.057Z,2.43
2022-09-14T19:51:01.233Z,2.50
2022-09-14T19:52:34.026Z,2.00
2022-09-14T19:54:06.803Z,2.30
2022-09-14T19:55:39.577Z,2.20
2022-09-14T19:57:12.285Z,1.70
2022-09-14T19:58:47.611Z,2.00
2022-09-14T20:00:20.353Z,2.20
2022-09-14T20:01:53.452Z,2.10
2022-09-14T20:03:25.894Z,2.43
2022-09-14T20:04:59.917Z,1.90
2022-09-14T20:06:36.147Z,2.17
2022-09-14T20:08:08.820Z,1.90
2022-09-14T20:09:41.511Z,2.40
2022-09-14T20:11:19.816Z,2.47
2022-09-14T20:12:54.158Z,2.40
2022-09-14T20:14:27.133Z,2.60
2022-09-14T20:15:58.951Z,2.10
2022-09-14T20:17:31.722Z,2.13
2022-09-14T20:19:07.730Z,2.27
2022-09-14T20:20:42.134Z,2.10
2022-09-14T20:22:16.810Z,1.93
2022-09-14T20:24:14.629Z,2.27
2022-09-14T20:25:46.069Z,2.60
2022-09-14T20:27:18.749Z,2.07
2022-09-14T20:28:51.553Z,2.57
2022-09-14T20:30:25.173Z,2.23
2022-09-14T20:31:58.103Z,2.10
2022-09-14T20:33:29.920Z,2.30
2022-09-14T20:35:02.618Z,2.07
2022-09-14T20:36:36.746Z,2.20
2022-09-14T20:38:09.438Z,2.20
2022-09-14T20:39:42.159Z,2.30
2022-09-14T20:41:17.824Z,2.30
2022-09-14T20:42:50.533Z,2.10
2022-09-14T20:44:23.386Z,1.97
2022-09-14T20:46:00.686Z,2.40
2022-09-14T20:47:33.374Z,2.33
2022-09-14T20:49:08.569Z,2.10
2022-09-14T20:50:41.262Z,2.30
2022-09-14T20:52:15.278Z,2.00
2022-09-14T20:53:47.293Z,2.27
2022-09-14T20:55:19.990Z,2.20
2022-09-14T20:56:52.684Z,2.10
2022-09-14T20:58:24.496Z,2.37
2022-09-14T20:59:57.644Z,1.80
2022-09-14T21:01:31.388Z,2.20
2022-09-14T21:03:04.205Z,2.23
2022-09-14T21:04:37.158Z,2.10
2022-09-14T21:06:11.032Z,2.60
2022-09-14T21:07:54.116Z,2.17
2022-09-14T21:09:29.110Z,2.07
2022-09-14T21:11:04.759Z,2.50